Time;durP1;ratioP1;P1;durP2;ratioP2;P2;SDS_P1;SDS_P2;PMS_P1;PMS_P2;Temp;Humidity;BMP_temperature;BMP_pressure;BME280_temperature;BME280_humidity;BME280_pressure;Samples;Min_cycle;Max_cycle;Signal;HPM_P1;HPM_P2
2023/12/02 01:12:31;;;;;;;1999.90;999.90;;;;;;;;;;5100973;23;20544;-69
2023/12/02 01:15:16;;;;;;;1999.90;999.90;;;;;;;;;;4976607;28;20704;-69
2023/12/02 01:18:01;;;;;;;1999.90;999.90;;;;;;;;;;4993950;28;20415;-69
2023/12/02 01:20:45;;;;;;;1999.90;999.90;;;;;;;;;;4993463;28;20814;-69
2023/12/02 01:23:30;;;;;;;1999.90;999.90;;;;;;;;;;4968992;28;20845;-68
2023/12/02 01:26:16;;;;;;;1999.90;999.90;;;;;;;;;;4973008;28;20836;-69
2023/12/02 01:29:02;;;;;;;1999.90;999.90;;;;;;;;;;4973586;28;20566;-69
2023/12/02 01:31:47;;;;;;;1999.90;999.90;;;;;;;;;;4971503;28;21188;-69
2023/12/02 01:34:32;;;;;;;1999.90;999.90;;;;;;;;;;4968510;28;20412;-68
2023/12/02 01:37:17;;;;;;;1999.90;999.90;;;;;;;;;;4965078;28;20423;-69
2023/12/02 01:40:02;;;;;;;1999.90;999.90;;;;;;;;;;4973919;28;20559;-69
2023/12/02 01:42:47;;;;;;;1999.90;999.90;;;;;;;;;;4973850;28;20836;-68
2023/12/02 01:45:34;;;;;;;1999.90;999.90;;;;;;;;;;4973247;28;20512;-69
2023/12/02 01:48:19;;;;;;;1999.90;999.90;;;;;;;;;;4955553;28;20421;-69
2023/12/02 01:51:04;;;;;;;1999.90;999.90;;;;;;;;;;4973545;28;20456;-69
2023/12/02 01:53:49;;;;;;;1999.90;999.90;;;;;;;;;;4973667;28;20937;-69
2023/12/02 01:56:34;;;;;;;1999.90;999.90;;;;;;;;;;4973852;28;20528;-69
2023/12/02 01:59:19;;;;;;;1999.90;999.90;;;;;;;;;;4973569;28;20508;-70
2023/12/02 02:02:06;;;;;;;1999.90;999.90;;;;;;;;;;4973092;28;20987;-69
2023/12/02 02:04:51;;;;;;;1999.90;999.90;;;;;;;;;;4971621;28;20464;-70
2023/12/02 02:07:36;;;;;;;1999.90;999.90;;;;;;;;;;4969750;28;20453;-69
2023/12/02 02:10:20;;;;;;;1999.90;999.90;;;;;;;;;;4965224;28;20979;-70
2023/12/02 02:13:06;;;;;;;1999.90;999.90;;;;;;;;;;4971765;28;20426;-68
2023/12/02 02:15:51;;;;;;;1999.90;999.90;;;;;;;;;;4969036;28;20431;-68
2023/12/02 02:18:37;;;;;;;1999.90;999.90;;;;;;;;;;4966353;28;20341;-69
2023/12/02 02:21:23;;;;;;;1999.90;999.90;;;;;;;;;;4965242;28;20235;-69
2023/12/02 02:24:09;;;;;;;1999.90;999.90;;;;;;;;;;4971553;28;20880;-68
2023/12/02 02:26:53;;;;;;;1999.90;999.90;;;;;;;;;;4970806;28;20451;-70
2023/12/02 02:29:38;;;;;;;1999.90;999.90;;;;;;;;;;4968767;28;20985;-69
2023/12/02 02:32:23;;;;;;;1999.90;999.90;;;;;;;;;;4970035;28;20473;-69
2023/12/02 02:35:08;;;;;;;1999.90;999.90;;;;;;;;;;4971863;28;20454;-70
2023/12/02 02:37:55;;;;;;;1999.90;999.90;;;;;;;;;;4970810;28;20556;-70
2023/12/02 02:40:40;;;;;;;1999.90;999.90;;;;;;;;;;4967111;28;20306;-69
2023/12/02 02:43:25;;;;;;;1999.90;999.90;;;;;;;;;;4970617;28;20484;-69
2023/12/02 02:46:10;;;;;;;1999.90;999.90;;;;;;;;;;4969232;28;20453;-68
2023/12/02 02:48:55;;;;;;;1999.90;999.90;;;;;;;;;;4963088;28;20538;-70
2023/12/02 02:51:40;;;;;;;1999.90;999.90;;;;;;;;;;4966304;28;20481;-70
2023/12/02 02:54:26;;;;;;;1999.90;999.90;;;;;;;;;;4964046;28;20424;-69
2023/12/02 02:57:11;;;;;;;1999.90;999.90;;;;;;;;;;4977340;28;20452;-67
2023/12/02 02:59:56;;;;;;;1999.90;999.90;;;;;;;;;;4972690;28;20444;-69
2023/12/02 03:02:42;;;;;;;1999.90;999.90;;;;;;;;;;4977513;28;20439;-69
2023/12/02 03:05:27;;;;;;;1999.90;999.90;;;;;;;;;;4962970;28;21027;-69
2023/12/02 03:08:12;;;;;;;1999.90;999.90;;;;;;;;;;4972595;28;20475;-69
2023/12/02 03:10:58;;;;;;;1999.90;999.90;;;;;;;;;;4972413;28;20601;-70
2023/12/02 03:13:43;;;;;;;1999.90;999.90;;;;;;;;;;4972523;28;20478;-70
2023/12/02 03:16:28;;;;;;;1999.90;999.90;;;;;;;;;;4972787;28;20423;-69
2023/12/02 03:19:13;;;;;;;1999.90;999.90;;;;;;;;;;4972532;28;20443;-68
2023/12/02 03:21:58;;;;;;;1999.90;999.90;;;;;;;;;;4972435;28;20522;-69
2023/12/02 03:24:43;;;;;;;1999.90;999.90;;;;;;;;;;4972032;28;20857;-69
2023/12/02 03:27:30;;;;;;;1999.90;999.90;;;;;;;;;;4965063;28;20416;-69
2023/12/02 03:30:15;;;;;;;1999.90;999.90;;;;;;;;;;4972383;28;20457;-69
2023/12/02 03:33:00;;;;;;;1999.90;999.90;;;;;;;;;;4972259;28;20887;-68
2023/12/02 03:35:45;;;;;;;1999.90;999.90;;;;;;;;;;4972583;28;20434;-69
2023/12/02 03:38:30;;;;;;;1999.90;999.90;;;;;;;;;;4972185;28;20471;-68
2023/12/02 03:41:15;;;;;;;1999.90;999.90;;;;;;;;;;4968907;28;20246;-68
2023/12/02 03:44:02;;;;;;;1999.90;999.90;;;;;;;;;;4968272;28;20556;-69
2023/12/02 03:46:47;;;;;;;1999.90;999.90;;;;;;;;;;4969647;28;20509;-68
2023/12/02 03:49:32;;;;;;;1999.90;999.90;;;;;;;;;;4975167;28;20818;-72
2023/12/02 03:52:17;;;;;;;1999.90;999.90;;;;;;;;;;4975589;28;20452;-71
2023/12/02 03:55:02;;;;;;;1999.90;999.90;;;;;;;;;;4975607;28;20498;-73
2023/12/02 03:57:48;;;;;;;1999.90;999.90;;;;;;;;;;4967813;28;20448;-72
2023/12/02 04:00:34;;;;;;;1999.90;999.90;;;;;;;;;;4975427;28;21044;-71
2023/12/02 04:03:19;;;;;;;1999.90;999.90;;;;;;;;;;4978206;28;20739;-73
2023/12/02 04:06:05;;;;;;;1999.90;999.90;;;;;;;;;;4975566;28;20804;-72
2023/12/02 04:08:50;;;;;;;1999.90;999.90;;;;;;;;;;4976042;28;20434;-71
2023/12/02 04:11:35;;;;;;;1999.90;999.90;;;;;;;;;;4968547;28;20489;-69
2023/12/02 04:14:20;;;;;;;1999.90;999.90;;;;;;;;;;4976544;28;20434;-69
2023/12/02 04:17:06;;;;;;;1999.90;999.90;;;;;;;;;;4975872;28;20436;-70
2023/12/02 04:19:51;;;;;;;1999.90;999.90;;;;;;;;;;4975686;28;20433;-71
2023/12/02 04:22:36;;;;;;;1999.90;999.90;;;;;;;;;;4968824;28;20422;-72
2023/12/02 04:25:22;;;;;;;1999.90;999.90;;;;;;;;;;4975059;28;20515;-72
2023/12/02 04:28:07;;;;;;;1999.90;999.90;;;;;;;;;;4976982;28;20801;-72
2023/12/02 04:30:53;;;;;;;1999.90;999.90;;;;;;;;;;4978177;28;21031;-71
2023/12/02 04:33:40;;;;;;;1999.90;999.90;;;;;;;;;;4971260;28;20896;-71
2023/12/02 04:36:24;;;;;;;1999.90;999.90;;;;;;;;;;4975288;28;20429;-72
2023/12/02 04:39:11;;;;;;;1999.90;999.90;;;;;;;;;;4975334;28;20428;-71
2023/12/02 04:41:56;;;;;;;1999.90;999.90;;;;;;;;;;4975347;28;20457;-68
2023/12/02 04:44:41;;;;;;;1999.90;999.90;;;;;;;;;;4974773;28;20467;-71
2023/12/02 04:47:26;;;;;;;1999.90;999.90;;;;;;;;;;4974854;28;20417;-72
2023/12/02 04:50:12;;;;;;;1999.90;999.90;;;;;;;;;;4974851;28;20789;-72
2023/12/02 04:52:57;;;;;;;1999.90;999.90;;;;;;;;;;4974940;28;20435;-71
2023/12/02 04:55:42;;;;;;;1999.90;999.90;;;;;;;;;;4975339;28;20473;-71
2023/12/02 04:58:26;;;;;;;1999.90;999.90;;;;;;;;;;4975240;28;20950;-72
2023/12/02 05:01:11;;;;;;;1999.90;999.90;;;;;;;;;;4975087;28;20438;-71
2023/12/02 05:03:57;;;;;;;1999.90;999.90;;;;;;;;;;4974452;28;20565;-72
2023/12/02 05:06:43;;;;;;;1999.90;999.90;;;;;;;;;;4974958;28;20229;-71
2023/12/02 05:09:28;;;;;;;1999.90;999.90;;;;;;;;;;4975043;28;20423;-71
2023/12/02 05:12:13;;;;;;;1999.90;999.90;;;;;;;;;;4974494;28;20460;-72
2023/12/02 05:14:58;;;;;;;1999.90;999.90;;;;;;;;;;4974354;28;20434;-72
2023/12/02 05:17:45;;;;;;;1999.90;999.90;;;;;;;;;;4974326;28;20421;-71
2023/12/02 05:20:30;;;;;;;1999.90;999.90;;;;;;;;;;4974513;28;20441;-72
2023/12/02 05:23:16;;;;;;;1999.90;999.90;;;;;;;;;;4970076;28;20456;-72
2023/12/02 05:26:01;;;;;;;1999.90;999.90;;;;;;;;;;4961286;28;20435;-72
2023/12/02 05:28:46;;;;;;;1999.90;999.90;;;;;;;;;;4967766;28;20698;-71
2023/12/02 05:31:31;;;;;;;1999.90;999.90;;;;;;;;;;4965248;28;20527;-72
2023/12/02 05:34:16;;;;;;;1999.90;999.90;;;;;;;;;;4970546;28;20452;-72
2023/12/02 05:37:01;;;;;;;1999.90;999.90;;;;;;;;;;4965968;28;20493;-72
2023/12/02 05:39:48;;;;;;;1999.90;999.90;;;;;;;;;;4973028;28;20418;-71
2023/12/02 05:42:33;;;;;;;1999.90;999.90;;;;;;;;;;4973441;28;20521;-71
2023/12/02 05:45:17;;;;;;;1999.90;999.90;;;;;;;;;;4971296;28;20560;-72
2023/12/02 05:48:02;;;;;;;1999.90;999.90;;;;;;;;;;4969434;28;20519;-72
2023/12/02 05:50:47;;;;;;;1999.90;999.90;;;;;;;;;;4972218;28;20492;-71
2023/12/02 05:53:32;;;;;;;1999.90;999.90;;;;;;;;;;4965460;28;20236;-72
2023/12/02 05:56:21;;;;;;;1999.90;999.90;;;;;;;;;;4961034;28;20444;-72
2023/12/02 05:59:06;;;;;;;1999.90;999.90;;;;;;;;;;4973672;28;20424;-72
2023/12/02 06:01:51;;;;;;;1999.90;999.90;;;;;;;;;;4972272;28;20376;-71
2023/12/02 06:04:36;;;;;;;1999.90;999.90;;;;;;;;;;4973263;28;20470;-72
2023/12/02 06:07:21;;;;;;;1999.90;999.90;;;;;;;;;;4971429;28;21180;-72
2023/12/02 06:10:07;;;;;;;1999.90;999.90;;;;;;;;;;4972078;28;20500;-72
2023/12/02 06:12:53;;;;;;;1999.90;999.90;;;;;;;;;;4967415;28;21018;-72
2023/12/02 06:15:38;;;;;;;1999.90;999.90;;;;;;;;;;4957512;28;20920;-72
2023/12/02 06:18:23;;;;;;;1999.90;999.90;;;;;;;;;;4971287;28;20426;-72
2023/12/02 06:21:08;;;;;;;1999.90;999.90;;;;;;;;;;4972284;28;20246;-72
2023/12/02 06:23:53;;;;;;;1999.90;999.90;;;;;;;;;;4961058;28;20602;-71
2023/12/02 06:26:38;;;;;;;1999.90;999.90;;;;;;;;;;4964179;28;20850;-71
2023/12/02 06:29:24;;;;;;;1999.90;999.90;;;;;;;;;;4972023;28;20824;-72
2023/12/02 06:32:09;;;;;;;1999.90;999.90;;;;;;;;;;4964095;28;20473;-72
2023/12/02 06:34:54;;;;;;;1999.90;999.90;;;;;;;;;;4954577;28;20421;-71
2023/12/02 06:37:39;;;;;;;1999.90;999.90;;;;;;;;;;4972674;28;20425;-72
2023/12/02 06:40:23;;;;;;;1999.90;999.90;;;;;;;;;;4967245;28;20456;-71
2023/12/02 06:43:08;;;;;;;1999.90;999.90;;;;;;;;;;4968493;28;20474;-72
2023/12/02 06:45:55;;;;;;;1999.90;999.90;;;;;;;;;;4965852;28;20481;-72
2023/12/02 06:48:40;;;;;;;1999.90;999.90;;;;;;;;;;4972854;28;20947;-72
2023/12/02 06:51:28;;;;;;;1999.90;999.90;;;;;;;;;;4964190;28;20482;-71
2023/12/02 06:54:13;;;;;;;1999.90;999.90;;;;;;;;;;4972110;28;20455;-72
2023/12/02 06:56:58;;;;;;;1999.90;999.90;;;;;;;;;;4960065;28;20505;-71
2023/12/02 06:59:45;;;;;;;1999.90;999.90;;;;;;;;;;4967825;28;20449;-72
2023/12/02 07:02:31;;;;;;;1999.90;999.90;;;;;;;;;;4965374;28;20465;-72
2023/12/02 07:05:16;;;;;;;1999.90;999.90;;;;;;;;;;4967126;28;20525;-72
2023/12/02 07:08:01;;;;;;;1999.90;999.90;;;;;;;;;;4967333;28;20428;-72
2023/12/02 07:10:46;;;;;;;1999.90;999.90;;;;;;;;;;4957352;28;21103;-71
2023/12/02 07:13:31;;;;;;;1999.90;999.90;;;;;;;;;;4971001;28;20569;-71
2023/12/02 07:16:16;;;;;;;1999.90;999.90;;;;;;;;;;4963369;28;20992;-72
2023/12/02 07:19:03;;;;;;;1999.90;999.90;;;;;;;;;;4967178;28;20422;-71
2023/12/02 07:21:49;;;;;;;1999.90;999.90;;;;;;;;;;4962907;28;20482;-72
2023/12/02 07:24:34;;;;;;;1999.90;999.90;;;;;;;;;;4974562;28;20595;-71
2023/12/02 07:27:20;;;;;;;1999.90;999.90;;;;;;;;;;4978894;28;20806;-70
2023/12/02 07:30:05;;;;;;;1999.90;999.90;;;;;;;;;;4975511;28;20432;-72
2023/12/02 07:32:50;;;;;;;1999.90;999.90;;;;;;;;;;4968947;28;20431;-71
2023/12/02 07:35:36;;;;;;;1999.90;999.90;;;;;;;;;;4976075;28;20450;-70
2023/12/02 07:38:21;;;;;;;1999.90;999.90;;;;;;;;;;4976222;28;20440;-72
2023/12/02 07:41:06;;;;;;;1999.90;999.90;;;;;;;;;;4975666;28;21206;-72
2023/12/02 07:43:51;;;;;;;1999.90;999.90;;;;;;;;;;4968880;28;21023;-72
2023/12/02 07:46:36;;;;;;;1999.90;999.90;;;;;;;;;;4975775;28;20484;-71
2023/12/02 07:49:21;;;;;;;1999.90;999.90;;;;;;;;;;4976030;28;20437;-72
2023/12/02 07:52:07;;;;;;;1999.90;999.90;;;;;;;;;;4975840;28;21000;-71
2023/12/02 07:54:52;;;;;;;1999.90;999.90;;;;;;;;;;4968326;28;20423;-71
2023/12/02 07:57:37;;;;;;;1999.90;999.90;;;;;;;;;;4975689;28;20480;-72
2023/12/02 08:00:22;;;;;;;1999.90;999.90;;;;;;;;;;4975558;28;20428;-72
2023/12/02 08:03:07;;;;;;;1999.90;999.90;;;;;;;;;;4968291;28;20504;-71
2023/12/02 08:05:52;;;;;;;1999.90;999.90;;;;;;;;;;4975230;28;21020;-71
2023/12/02 08:08:39;;;;;;;1999.90;999.90;;;;;;;;;;4975382;28;20798;-72
2023/12/02 08:11:24;;;;;;;1999.90;999.90;;;;;;;;;;4975399;28;20469;-72
2023/12/02 08:14:09;;;;;;;1999.90;999.90;;;;;;;;;;4969865;28;20212;-71
2023/12/02 08:16:54;;;;;;;1999.90;999.90;;;;;;;;;;4967757;28;20953;-72
2023/12/02 08:19:39;;;;;;;1999.90;999.90;;;;;;;;;;4972987;28;20504;-71
2023/12/02 08:22:24;;;;;;;1999.90;999.90;;;;;;;;;;4975132;28;20456;-71
2023/12/02 08:25:11;;;;;;;1999.90;999.90;;;;;;;;;;4969687;28;20221;-72
2023/12/02 08:27:57;;;;;;;1999.90;999.90;;;;;;;;;;4975199;28;20434;-70
2023/12/02 08:30:42;;;;;;;1999.90;999.90;;;;;;;;;;4972289;28;20450;-71
2023/12/02 08:33:27;;;;;;;1999.90;999.90;;;;;;;;;;4972048;28;20439;-72
2023/12/02 08:36:12;;;;;;;1999.90;999.90;;;;;;;;;;4975226;28;20487;-72
2023/12/02 08:38:57;;;;;;;1999.90;999.90;;;;;;;;;;4975354;28;20953;-72
2023/12/02 08:41:43;;;;;;;1999.90;999.90;;;;;;;;;;4970155;28;20462;-72
2023/12/02 08:44:28;;;;;;;1999.90;999.90;;;;;;;;;;4972951;28;20207;-72
2023/12/02 08:47:13;;;;;;;1999.90;999.90;;;;;;;;;;4972227;28;20708;-72
2023/12/02 08:49:58;;;;;;;1999.90;999.90;;;;;;;;;;4972255;28;20430;-72
2023/12/02 08:52:43;;;;;;;1999.90;999.90;;;;;;;;;;4968026;28;20454;-71
2023/12/02 08:55:28;;;;;;;1999.90;999.90;;;;;;;;;;4970771;28;20898;-73
2023/12/02 08:58:14;;;;;;;1999.90;999.90;;;;;;;;;;4970470;28;20617;-73
2023/12/02 09:00:59;;;;;;;1999.90;999.90;;;;;;;;;;4969644;28;20232;-71
2023/12/02 09:03:44;;;;;;;1999.90;999.90;;;;;;;;;;4971374;28;20440;-73
2023/12/02 09:06:29;;;;;;;1999.90;999.90;;;;;;;;;;4969241;28;20476;-70
2023/12/02 09:09:14;;;;;;;1999.90;999.90;;;;;;;;;;4971548;28;21469;-72
2023/12/02 09:11:59;;;;;;;1999.90;999.90;;;;;;;;;;4970697;28;20422;-72
2023/12/02 09:14:45;;;;;;;1999.90;999.90;;;;;;;;;;4970241;28;20294;-72
2023/12/02 09:17:49;;;;;;;1999.90;999.90;;;;;;;;;;4972307;28;20426;-71
2023/12/02 09:20:37;;;;;;;1999.90;999.90;;;;;;;;;;4970206;28;20234;-74
2023/12/02 09:23:22;;;;;;;1999.90;999.90;;;;;;;;;;4967350;28;20498;-71
2023/12/02 09:26:24;;;;;;;1999.90;999.90;;;;;;;;;;4971108;28;20470;-72
2023/12/02 09:29:10;;;;;;;1999.90;999.90;;;;;;;;;;4970165;28;20446;-71
2023/12/02 09:31:57;;;;;;;1999.90;999.90;;;;;;;;;;4970467;28;21070;-71
2023/12/02 09:34:58;;;;;;;1999.90;999.90;;;;;;;;;;4968650;28;20513;-72
2023/12/02 09:37:53;;;;;;;1999.90;999.90;;;;;;;;;;4968156;28;20603;-74
2023/12/02 09:40:47;;;;;;;1999.90;999.90;;;;;;;;;;4970506;28;20469;-72
2023/12/02 09:43:33;;;;;;;1999.90;999.90;;;;;;;;;;4969553;28;20450;-71
2023/12/02 09:46:29;;;;;;;1999.90;999.90;;;;;;;;;;4971032;28;20488;-73
2023/12/02 09:49:28;;;;;;;1999.90;999.90;;;;;;;;;;4969111;28;20457;-71
2023/12/02 09:52:25;;;;;;;1999.90;999.90;;;;;;;;;;4966788;28;20309;-72
2023/12/02 09:55:13;;;;;;;1999.90;999.90;;;;;;;;;;4965682;28;20466;-72
2023/12/02 09:58:03;;;;;;;1999.90;999.90;;;;;;;;;;4965830;28;20982;-72
2023/12/02 10:00:50;;;;;;;1999.90;999.90;;;;;;;;;;4970653;28;20457;-72
2023/12/02 10:03:48;;;;;;;1999.90;999.90;;;;;;;;;;4970129;28;21003;-71
2023/12/02 10:06:44;;;;;;;1999.90;999.90;;;;;;;;;;4970094;28;20568;-71
2023/12/02 10:09:36;;;;;;;1999.90;999.90;;;;;;;;;;4967050;28;20810;-73
2023/12/02 10:12:28;;;;;;;1999.90;999.90;;;;;;;;;;4967928;28;20604;-70
2023/12/02 10:15:16;;;;;;;1999.90;999.90;;;;;;;;;;4969934;28;20441;-73
2023/12/02 10:18:05;;;;;;;1999.90;999.90;;;;;;;;;;4970671;28;20278;-72
2023/12/02 10:20:53;;;;;;;1999.90;999.90;;;;;;;;;;4970813;28;20316;-71
2023/12/02 10:23:44;;;;;;;1999.90;999.90;;;;;;;;;;4966149;28;20222;-70
2023/12/02 10:26:33;;;;;;;1999.90;999.90;;;;;;;;;;4970198;28;20586;-71
2023/12/02 10:29:22;;;;;;;1999.90;999.90;;;;;;;;;;4968988;28;20223;-71
2023/12/02 10:32:15;;;;;;;1999.90;999.90;;;;;;;;;;4968133;28;20252;-70
2023/12/02 10:35:03;;;;;;;1999.90;999.90;;;;;;;;;;4970823;28;20216;-72
2023/12/02 10:37:51;;;;;;;1999.90;999.90;;;;;;;;;;4969829;28;20508;-72
2023/12/02 10:40:38;;;;;;;1999.90;999.90;;;;;;;;;;4965023;28;21169;-73
2023/12/02 10:43:27;;;;;;;1999.90;999.90;;;;;;;;;;4968715;28;20392;-72
2023/12/02 10:46:13;;;;;;;1999.90;999.90;;;;;;;;;;4968279;28;20843;-72
2023/12/02 10:48:59;;;;;;;1999.90;999.90;;;;;;;;;;4968903;28;20454;-72
2023/12/02 10:51:45;;;;;;;1999.90;999.90;;;;;;;;;;4968254;28;20453;-71
2023/12/02 10:54:33;;;;;;;1999.90;999.90;;;;;;;;;;4968635;28;20408;-72
2023/12/02 10:57:20;;;;;;;1999.90;999.90;;;;;;;;;;4971388;28;20218;-72
2023/12/02 11:00:07;;;;;;;1999.90;999.90;;;;;;;;;;4976063;28;20581;-71
2023/12/02 11:02:55;;;;;;;1999.90;999.90;;;;;;;;;;4972520;28;20924;-71
2023/12/02 11:05:45;;;;;;;1999.90;999.90;;;;;;;;;;4973175;28;20214;-73
2023/12/02 11:08:36;;;;;;;1999.90;999.90;;;;;;;;;;4977231;28;20299;-71
2023/12/02 11:11:27;;;;;;;1999.90;999.90;;;;;;;;;;4968982;28;20251;-72
2023/12/02 11:14:16;;;;;;;1999.90;999.90;;;;;;;;;;4976071;28;20420;-72
2023/12/02 11:17:07;;;;;;;1999.90;999.90;;;;;;;;;;4976467;28;20260;-72
2023/12/02 11:20:05;;;;;;;1999.90;999.90;;;;;;;;;;4976230;28;20481;-72
2023/12/02 11:23:10;;;;;;;1999.90;999.90;;;;;;;;;;4976432;28;20452;-72
2023/12/02 11:26:03;;;;;;;1999.90;999.90;;;;;;;;;;4976810;28;20462;-72
2023/12/02 11:28:56;;;;;;;1999.90;999.90;;;;;;;;;;4976319;28;20422;-72
2023/12/02 11:32:00;;;;;;;1999.90;999.90;;;;;;;;;;4976313;28;20525;-72
2023/12/02 11:34:59;;;;;;;1999.90;999.90;;;;;;;;;;4976019;28;20631;-72
2023/12/02 11:37:56;;;;;;;1999.90;999.90;;;;;;;;;;4976140;28;20957;-72
2023/12/02 11:40:52;;;;;;;1999.90;999.90;;;;;;;;;;4976229;28;20228;-72
2023/12/02 11:43:44;;;;;;;1999.90;999.90;;;;;;;;;;4975687;28;20795;-72
2023/12/02 11:46:31;;;;;;;1999.90;999.90;;;;;;;;;;4974462;28;20259;-73
2023/12/02 11:49:22;;;;;;;1999.90;999.90;;;;;;;;;;4967989;28;20415;-72
2023/12/02 11:52:13;;;;;;;1999.90;999.90;;;;;;;;;;4974078;28;20235;-72
2023/12/02 11:55:05;;;;;;;1999.90;999.90;;;;;;;;;;4974159;28;20228;-72
2023/12/02 11:57:58;;;;;;;1999.90;999.90;;;;;;;;;;4975350;28;20720;-72
2023/12/02 12:00:51;;;;;;;1999.90;999.90;;;;;;;;;;4975517;28;20243;-72
2023/12/02 12:03:46;;;;;;;1999.90;999.90;;;;;;;;;;4975538;28;20208;-72
2023/12/02 12:06:42;;;;;;;1999.90;999.90;;;;;;;;;;4975435;28;20220;-72
2023/12/02 12:09:31;;;;;;;1999.90;999.90;;;;;;;;;;4974881;28;20204;-72
2023/12/02 12:12:18;;;;;;;1999.90;999.90;;;;;;;;;;4974668;28;20509;-72
2023/12/02 12:15:04;;;;;;;1999.90;999.90;;;;;;;;;;4973277;28;20216;-70
2023/12/02 12:17:48;;;;;;;1999.90;999.90;;;;;;;;;;4970376;28;20333;-71
2023/12/02 12:20:34;;;;;;;1999.90;999.90;;;;;;;;;;4972108;28;21011;-72
2023/12/02 12:23:22;;;;;;;1999.90;999.90;;;;;;;;;;4970512;28;20223;-73
2023/12/02 12:26:08;;;;;;;1999.90;999.90;;;;;;;;;;4968860;28;20322;-73
2023/12/02 12:28:53;;;;;;;1999.90;999.90;;;;;;;;;;4971426;28;20583;-72
2023/12/02 12:31:39;;;;;;;1999.90;999.90;;;;;;;;;;4972123;28;20235;-72
2023/12/02 12:34:24;;;;;;;1999.90;999.90;;;;;;;;;;4971907;28;20212;-73
2023/12/02 12:37:09;;;;;;;1999.90;999.90;;;;;;;;;;4971334;28;20291;-72
2023/12/02 12:39:55;;;;;;;1999.90;999.90;;;;;;;;;;4969797;28;20700;-72
2023/12/02 12:42:46;;;;;;;1999.90;999.90;;;;;;;;;;4972675;28;20215;-71
2023/12/02 12:45:33;;;;;;;1999.90;999.90;;;;;;;;;;4972632;28;20244;-73
2023/12/02 12:48:23;;;;;;;1999.90;999.90;;;;;;;;;;4971378;28;20267;-71
2023/12/02 12:51:08;;;;;;;1999.90;999.90;;;;;;;;;;4969028;28;20228;-72
2023/12/02 12:53:58;;;;;;;1999.90;999.90;;;;;;;;;;4972540;28;20271;-72
2023/12/02 12:56:46;;;;;;;1999.90;999.90;;;;;;;;;;4971834;28;20216;-72
2023/12/02 12:59:34;;;;;;;1999.90;999.90;;;;;;;;;;4970181;28;20228;-71
2023/12/02 13:02:28;;;;;;;1999.90;999.90;;;;;;;;;;4971762;28;20331;-71
2023/12/02 13:05:16;;;;;;;1999.90;999.90;;;;;;;;;;4968721;28;20259;-72
2023/12/02 13:08:03;;;;;;;1999.90;999.90;;;;;;;;;;4971138;28;20247;-71
2023/12/02 13:10:49;;;;;;;1999.90;999.90;;;;;;;;;;4969583;28;20248;-72
2023/12/02 13:13:38;;;;;;;1999.90;999.90;;;;;;;;;;4970627;28;20200;-71
2023/12/02 13:16:23;;;;;;;1999.90;999.90;;;;;;;;;;4971502;28;20708;-72
2023/12/02 13:19:11;;;;;;;1999.90;999.90;;;;;;;;;;4971663;28;20216;-73
2023/12/02 13:21:57;;;;;;;1999.90;999.90;;;;;;;;;;4970661;28;20251;-71
2023/12/02 13:24:47;;;;;;;1999.90;999.90;;;;;;;;;;4971766;28;20263;-72
2023/12/02 13:27:34;;;;;;;1999.90;999.90;;;;;;;;;;4971573;28;20268;-73
2023/12/02 13:30:23;;;;;;;1999.90;999.90;;;;;;;;;;4973301;28;20216;-73
2023/12/02 13:33:11;;;;;;;1999.90;999.90;;;;;;;;;;4969929;28;20447;-72
2023/12/02 13:36:06;;;;;;;1999.90;999.90;;;;;;;;;;4972543;28;20216;-72
2023/12/02 13:38:57;;;;;;;1999.90;999.90;;;;;;;;;;4973869;28;20216;-73
2023/12/02 13:41:46;;;;;;;1999.90;999.90;;;;;;;;;;4973855;28;20626;-73
2023/12/02 13:44:32;;;;;;;1999.90;999.90;;;;;;;;;;4973640;28;20223;-73
2023/12/02 13:47:23;;;;;;;1999.90;999.90;;;;;;;;;;4973486;28;20356;-73
2023/12/02 13:50:11;;;;;;;1999.90;999.90;;;;;;;;;;4973747;28;20212;-73
2023/12/02 13:53:00;;;;;;;1999.90;999.90;;;;;;;;;;4973387;28;20224;-73
2023/12/02 13:55:51;;;;;;;1999.90;999.90;;;;;;;;;;4973719;28;20584;-72
2023/12/02 13:58:40;;;;;;;1999.90;999.90;;;;;;;;;;4973628;28;20579;-73
2023/12/02 14:01:30;;;;;;;1999.90;999.90;;;;;;;;;;4965835;28;20232;-72
2023/12/02 14:04:24;;;;;;;1999.90;999.90;;;;;;;;;;4972436;28;20212;-71
2023/12/02 14:07:17;;;;;;;1999.90;999.90;;;;;;;;;;4967886;28;20227;-72
2023/12/02 14:10:03;;;;;;;1999.90;999.90;;;;;;;;;;4969656;28;20216;-72
2023/12/02 14:13:01;;;;;;;1999.90;999.90;;;;;;;;;;4971586;28;20215;-71
2023/12/02 14:15:54;;;;;;;1999.90;999.90;;;;;;;;;;4968185;28;20290;-72
2023/12/02 14:19:01;;;;;;;1999.90;999.90;;;;;;;;;;4973517;28;20224;-72
2023/12/02 14:22:04;;;;;;;1999.90;999.90;;;;;;;;;;4968346;28;20308;-72
2023/12/02 14:24:56;;;;;;;1999.90;999.90;;;;;;;;;;4970578;28;20247;-72
2023/12/02 14:27:48;;;;;;;1999.90;999.90;;;;;;;;;;4967067;28;20228;-72
2023/12/02 14:30:40;;;;;;;1999.90;999.90;;;;;;;;;;4970893;28;21005;-72
2023/12/02 14:33:43;;;;;;;1999.90;999.90;;;;;;;;;;4970446;28;20602;-72
2023/12/02 14:36:37;;;;;;;1999.90;999.90;;;;;;;;;;4964756;28;20228;-73
2023/12/02 14:39:32;;;;;;;1999.90;999.90;;;;;;;;;;4971034;28;20274;-73
2023/12/02 14:42:22;;;;;;;1999.90;999.90;;;;;;;;;;4956156;28;20228;-73
2023/12/02 14:45:08;;;;;;;1999.90;999.90;;;;;;;;;;4953670;29;20300;-73
2023/12/02 14:48:01;;;;;;;1999.90;999.90;;;;;;;;;;4964632;28;20270;-72
2023/12/02 14:50:47;;;;;;;1999.90;999.90;;;;;;;;;;4954062;28;20237;-71
2023/12/02 14:53:34;;;;;;;1999.90;999.90;;;;;;;;;;4965232;28;20462;-71
2023/12/02 14:56:43;;;;;;;1999.90;999.90;;;;;;;;;;4971812;28;20691;-71
2023/12/02 14:59:28;;;;;;;1999.90;999.90;;;;;;;;;;4972431;28;20307;-71
2023/12/02 15:02:28;;;;;;;1999.90;999.90;;;;;;;;;;4972927;28;20724;-72
2023/12/02 15:05:15;;;;;;;1999.90;999.90;;;;;;;;;;4972592;28;20220;-72
2023/12/02 15:08:02;;;;;;;1999.90;999.90;;;;;;;;;;4972457;28;20708;-72
2023/12/02 15:10:47;;;;;;;1999.90;999.90;;;;;;;;;;4972372;28;20721;-72
2023/12/02 15:13:34;;;;;;;1999.90;999.90;;;;;;;;;;4969837;28;20857;-72
2023/12/02 15:16:19;;;;;;;1999.90;999.90;;;;;;;;;;4969255;28;20251;-72
2023/12/02 15:19:07;;;;;;;1999.90;999.90;;;;;;;;;;4969627;28;20215;-72
2023/12/02 15:22:11;;;;;;;1999.90;999.90;;;;;;;;;;4968453;28;20299;-72
2023/12/02 15:24:57;;;;;;;1999.90;999.90;;;;;;;;;;4968316;28;20295;-71
2023/12/02 15:27:42;;;;;;;1999.90;999.90;;;;;;;;;;4969834;28;20632;-72
2023/12/02 15:30:28;;;;;;;1999.90;999.90;;;;;;;;;;4968772;28;20709;-72
2023/12/02 15:33:15;;;;;;;1999.90;999.90;;;;;;;;;;4969570;28;20836;-73
2023/12/02 15:36:00;;;;;;;1999.90;999.90;;;;;;;;;;4967763;28;20208;-73
2023/12/02 15:38:46;;;;;;;1999.90;999.90;;;;;;;;;;4970351;28;20226;-73
2023/12/02 15:41:31;;;;;;;1999.90;999.90;;;;;;;;;;4968513;28;20361;-73
2023/12/02 15:44:16;;;;;;;1999.90;999.90;;;;;;;;;;4971344;28;20344;-73
2023/12/02 15:47:02;;;;;;;1999.90;999.90;;;;;;;;;;4973393;28;20223;-73
2023/12/02 15:49:48;;;;;;;1999.90;999.90;;;;;;;;;;4971433;28;20411;-73
2023/12/02 15:52:33;;;;;;;1999.90;999.90;;;;;;;;;;4973023;28;20228;-73
2023/12/02 15:55:18;;;;;;;1999.90;999.90;;;;;;;;;;4969896;28;20587;-73
2023/12/02 15:58:04;;;;;;;1999.90;999.90;;;;;;;;;;4973561;28;20219;-72
2023/12/02 16:00:49;;;;;;;1999.90;999.90;;;;;;;;;;4969865;28;20232;-73
2023/12/02 16:03:35;;;;;;;1999.90;999.90;;;;;;;;;;4973431;28;20219;-72
2023/12/02 16:06:21;;;;;;;1999.90;999.90;;;;;;;;;;4973227;28;20231;-71
2023/12/02 16:09:06;;;;;;;1999.90;999.90;;;;;;;;;;4966378;28;20593;-72
2023/12/02 16:11:52;;;;;;;1999.90;999.90;;;;;;;;;;4971271;28;20823;-71
2023/12/02 16:14:43;;;;;;;1999.90;999.90;;;;;;;;;;4969663;28;20235;-70
2023/12/02 16:17:29;;;;;;;1999.90;999.90;;;;;;;;;;4973383;28;20278;-70
2023/12/02 16:20:15;;;;;;;1999.90;999.90;;;;;;;;;;4972569;28;20256;-71
2023/12/02 16:23:00;;;;;;;1999.90;999.90;;;;;;;;;;4972371;28;20278;-72
2023/12/02 16:25:46;;;;;;;1999.90;999.90;;;;;;;;;;4969733;28;20603;-71
2023/12/02 16:28:32;;;;;;;1999.90;999.90;;;;;;;;;;4971805;28;20359;-72
2023/12/02 16:31:24;;;;;;;1999.90;999.90;;;;;;;;;;4971475;28;20231;-71
2023/12/02 16:34:09;;;;;;;1999.90;999.90;;;;;;;;;;4973113;28;20212;-72
2023/12/02 16:36:56;;;;;;;1999.90;999.90;;;;;;;;;;4973179;28;20235;-73
2023/12/02 16:39:41;;;;;;;1999.90;999.90;;;;;;;;;;4971509;28;20260;-72
2023/12/02 16:42:26;;;;;;;1999.90;999.90;;;;;;;;;;4972180;28;20240;-72
2023/12/02 16:45:14;;;;;;;1999.90;999.90;;;;;;;;;;4972194;28;20235;-71